createdAt,value
2023-04-08T00:02:19.438Z,6.43
2023-04-08T00:04:49.263Z,6.43
2023-04-08T00:07:17.697Z,7.35
2023-04-08T00:09:46.152Z,6.50
2023-04-08T00:12:15.451Z,5.95
2023-04-08T00:14:43.698Z,4.70
2023-04-08T00:17:11.981Z,7.78
2023-04-08T00:19:40.340Z,7.82
2023-04-08T00:22:11.058Z,7.90
2023-04-08T00:24:40.515Z,7.50
2023-04-08T00:27:08.773Z,6.35
2023-04-08T00:29:36.992Z,5.40
2023-04-08T00:32:05.406Z,5.82
2023-04-08T00:34:34.065Z,10.13
2023-04-08T00:37:02.803Z,5.63
2023-04-08T00:39:33.101Z,4.72
2023-04-08T00:42:02.695Z,5.78
2023-04-08T00:44:31.296Z,5.88
2023-04-08T00:46:59.795Z,5.68
2023-04-08T00:49:28.165Z,5.50
2023-04-08T00:51:56.545Z,9.82
2023-04-08T00:54:25.115Z,7.22
2023-04-08T00:56:54.889Z,6.25
2023-04-08T00:59:23.548Z,7.07
2023-04-08T01:01:57.263Z,5.38
2023-04-08T01:04:34.539Z,7.47
2023-04-08T01:07:14.135Z,7.28
2023-04-08T01:09:46.796Z,6.03
2023-04-08T01:12:21.976Z,4.90
2023-04-08T01:14:54.226Z,5.40
2023-04-08T01:17:25.936Z,4.40
2023-04-08T01:19:57.244Z,8.15
2023-04-08T01:22:34.267Z,4.93
2023-04-08T01:25:08.113Z,5.93
2023-04-08T01:27:39.672Z,6.10
2023-04-08T01:30:10.506Z,5.55
2023-04-08T01:32:39.365Z,8.80
2023-04-08T01:35:09.142Z,9.25
2023-04-08T01:37:38.392Z,5.70
2023-04-08T01:40:09.157Z,6.82
2023-04-08T01:42:41.360Z,4.95
2023-04-08T01:45:12.170Z,5.18
2023-04-08T01:47:41.937Z,6.47
2023-04-08T01:50:11.268Z,7.55
2023-04-08T01:52:41.866Z,4.28
2023-04-08T01:55:10.786Z,11.48
2023-04-08T01:57:43.252Z,5.50
2023-04-08T02:00:15.305Z,5.15
2023-04-08T02:02:45.687Z,6.22
2023-04-08T02:05:14.572Z,5.82
2023-04-08T02:07:43.041Z,7.03
2023-04-08T02:10:12.233Z,7.07
2023-04-08T02:12:42.127Z,6.00
2023-04-08T02:15:11.551Z,5.80
2023-04-08T02:17:47.247Z,5.25
2023-04-08T02:20:19.456Z,6.70
2023-04-08T02:22:51.692Z,5.82
2023-04-08T02:25:24.480Z,8.60
2023-04-08T02:27:57.272Z,6.60
2023-04-08T02:30:28.974Z,6.88
2023-04-08T02:32:59.801Z,5.80
2023-04-08T02:35:30.025Z,6.63
2023-04-08T02:37:58.377Z,7.50
2023-04-08T02:40:28.636Z,4.53
2023-04-08T02:42:59.934Z,6.38
2023-04-08T02:45:31.223Z,7.30
2023-04-08T02:48:01.418Z,8.00
2023-04-08T02:50:29.719Z,5.50
2023-04-08T02:52:58.060Z,6.45
2023-04-08T02:55:26.504Z,8.25
2023-04-08T02:57:54.883Z,7.03
2023-04-08T03:00:24.479Z,5.55
2023-04-08T03:02:53.311Z,8.60
2023-04-08T03:05:21.907Z,6.03
2023-04-08T03:07:50.481Z,8.43
2023-04-08T03:10:19.202Z,6.93
2023-04-08T03:12:47.680Z,6.05
2023-04-08T03:15:16.334Z,7.60
2023-04-08T03:17:46.960Z,5.95
2023-04-08T03:20:15.537Z,8.00
2023-04-08T03:22:44.453Z,6.65
2023-04-08T03:25:13.017Z,5.85
2023-04-08T03:27:41.257Z,7.05
2023-04-08T03:30:10.522Z,7.88
2023-04-08T03:32:39.796Z,7.63
2023-04-08T03:35:10.559Z,9.75
2023-04-08T03:37:39.232Z,9.32
2023-04-08T03:40:09.231Z,7.50
2023-04-08T03:42:37.531Z,9.25
2023-04-08T03:45:06.869Z,7.82
2023-04-08T03:47:35.773Z,10.60
2023-04-08T03:50:04.488Z,7.82
2023-04-08T03:52:34.458Z,8.23
2023-04-08T03:55:03.580Z,7.68
2023-04-08T03:57:32.341Z,8.50
2023-04-08T04:00:00.726Z,9.15
2023-04-08T04:02:32.421Z,10.52
2023-04-08T04:05:03.684Z,9.20
2023-04-08T04:07:33.717Z,9.13
2023-04-08T04:10:02.136Z,10.73
2023-04-08T04:12:30.941Z,9.35
2023-04-08T04:14:59.777Z,10.02
2023-04-08T04:17:28.100Z,11.18
2023-04-08T04:19:56.866Z,11.98
2023-04-08T04:22:25.152Z,17.10
2023-04-08T04:24:55.749Z,18.45
2023-04-08T04:27:24.074Z,19.20
2023-04-08T04:29:52.468Z,25.02
2023-04-08T04:32:20.718Z,23.63
2023-04-08T04:34:48.925Z,22.33
2023-04-08T04:37:17.254Z,25.83
2023-04-08T04:39:46.054Z,27.15
2023-04-08T04:42:15.709Z,28.30
2023-04-08T04:44:44.674Z,28.65
2023-04-08T04:47:13.078Z,29.85
2023-04-08T04:49:42.302Z,30.30
2023-04-08T04:52:11.231Z,29.27
2023-04-08T04:54:40.248Z,29.25
2023-04-08T04:57:08.598Z,25.52
2023-04-08T04:59:38.340Z,28.33
2023-04-08T05:02:06.826Z,26.10
2023-04-08T05:04:35.333Z,26.05
2023-04-08T05:07:03.726Z,25.77
2023-04-08T05:09:31.954Z,24.30
2023-04-08T05:12:00.363Z,24.70
2023-04-08T05:14:30.570Z,20.02
2023-04-08T05:17:00.948Z,21.27
2023-04-08T05:19:29.532Z,22.52
2023-04-08T05:21:58.892Z,18.05
2023-04-08T05:24:28.344Z,20.95
2023-04-08T05:26:57.838Z,17.15
2023-04-08T05:29:26.370Z,15.93
2023-04-08T05:31:56.447Z,18.00
2023-04-08T05:34:29.293Z,16.45
2023-04-08T05:36:57.791Z,19.25
2023-04-08T05:39:26.434Z,20.17
2023-04-08T05:41:55.479Z,18.50
2023-04-08T05:44:23.676Z,21.75
2023-04-08T05:46:52.081Z,30.67
2023-04-08T05:49:20.451Z,26.60
2023-04-08T05:51:49.994Z,32.83
2023-04-08T05:54:18.464Z,34.80
2023-04-08T05:56:48.136Z,33.47
2023-04-08T05:59:17.269Z,33.92
2023-04-08T06:01:45.910Z,35.05
2023-04-08T06:04:14.381Z,37.78
2023-04-08T06:06:42.590Z,38.72
2023-04-08T06:09:13.601Z,32.92
2023-04-08T06:11:44.913Z,38.05
2023-04-08T06:14:13.463Z,40.17
2023-04-08T06:16:41.649Z,34.78
2023-04-08T06:19:12.631Z,31.80
2023-04-08T06:21:40.986Z,33.75
2023-04-08T06:24:09.232Z,29.88
2023-04-08T06:26:38.847Z,28.33
2023-04-08T06:29:07.112Z,28.67
2023-04-08T06:31:35.724Z,25.75
2023-04-08T06:34:03.903Z,25.50
2023-04-08T06:36:32.226Z,18.85
2023-04-08T06:39:00.434Z,21.30
2023-04-08T06:41:28.571Z,22.17
2023-04-08T06:44:04.033Z,19.13
2023-04-08T06:46:32.708Z,23.17
2023-04-08T06:49:00.936Z,23.15
2023-04-08T06:51:29.321Z,24.70
2023-04-08T06:53:58.255Z,21.08
2023-04-08T06:56:27.444Z,21.70
2023-04-08T06:58:56.148Z,19.98
2023-04-08T07:01:25.952Z,23.08
2023-04-08T07:03:54.419Z,22.65
2023-04-08T07:06:22.864Z,22.13
2023-04-08T07:08:51.610Z,22.95
2023-04-08T07:11:21.122Z,23.08
2023-04-08T07:13:49.498Z,26.52
2023-04-08T07:16:17.766Z,24.20
2023-04-08T07:18:47.733Z,19.70
2023-04-08T07:21:16.598Z,21.85
2023-04-08T07:23:44.742Z,22.65
2023-04-08T07:26:13.168Z,28.10
2023-04-08T07:28:41.328Z,25.08
2023-04-08T07:31:13.857Z,26.58
2023-04-08T07:33:42.385Z,26.73
2023-04-08T07:36:12.681Z,29.33
2023-04-08T07:38:41.144Z,25.92
2023-04-08T07:41:09.350Z,26.13
2023-04-08T07:43:38.927Z,28.67
2023-04-08T07:46:07.743Z,22.92
2023-04-08T07:48:36.656Z,28.20
2023-04-08T07:51:09.172Z,29.20
2023-04-08T07:53:41.243Z,31.88
2023-04-08T07:56:13.797Z,29.73
2023-04-08T07:58:42.669Z,32.00
2023-04-08T08:01:20.164Z,40.25
2023-04-08T08:03:49.286Z,49.25
2023-04-08T08:06:17.686Z,28.75
2023-04-08T08:08:47.185Z,29.77
2023-04-08T08:11:15.443Z,27.30
2023-04-08T08:13:43.634Z,34.10
2023-04-08T08:16:12.597Z,42.17
2023-04-08T08:18:41.237Z,39.30
2023-04-08T08:21:10.131Z,34.97
2023-04-08T08:23:38.525Z,40.17
2023-04-08T08:26:10.090Z,43.20
2023-04-08T08:28:38.854Z,39.95
2023-04-08T08:31:07.523Z,39.88
2023-04-08T08:33:38.720Z,38.97
2023-04-08T08:36:07.711Z,37.53
2023-04-08T08:38:35.875Z,35.25
2023-04-08T08:41:04.239Z,40.78
2023-04-08T08:43:34.589Z,37.60
2023-04-08T08:46:03.658Z,44.42
2023-04-08T08:48:32.888Z,48.28
2023-04-08T08:51:01.941Z,44.90
2023-04-08T08:53:35.110Z,38.67
2023-04-08T08:58:36.537Z,37.40
2023-04-08T09:01:04.762Z,41.58
2023-04-08T09:03:33.452Z,40.50
2023-04-08T09:06:03.865Z,43.05
2023-04-08T09:08:33.804Z,34.67
2023-04-08T09:11:17.060Z,43.17
2023-04-08T09:13:47.469Z,36.63
2023-04-08T09:16:18.336Z,37.90
2023-04-08T09:18:49.045Z,73.28
2023-04-08T09:21:18.998Z,34.25
2023-04-08T09:23:48.720Z,34.30
2023-04-08T09:26:19.463Z,35.42
2023-04-08T09:29:11.004Z,40.15
2023-04-08T09:31:41.737Z,35.65
2023-04-08T09:34:12.934Z,39.17
2023-04-08T09:36:41.090Z,44.75
2023-04-08T09:39:09.439Z,41.13
2023-04-08T09:41:40.095Z,40.08
2023-04-08T09:44:11.894Z,39.95
2023-04-08T09:46:48.636Z,41.85
2023-04-08T09:49:27.081Z,40.83
2023-04-08T09:52:00.891Z,38.67
2023-04-08T09:54:38.894Z,45.95
2023-04-08T09:57:13.032Z,39.67
2023-04-08T09:59:50.123Z,38.15
2023-04-08T10:02:26.733Z,38.83
2023-04-08T10:04:58.462Z,35.70
2023-04-08T10:07:26.932Z,36.05
2023-04-08T10:09:55.297Z,32.83
2023-04-08T10:12:23.675Z,34.38
2023-04-08T10:15:27.558Z,28.95
2023-04-08T10:17:57.198Z,29.27
2023-04-08T10:20:44.837Z,26.08
2023-04-08T10:23:14.531Z,32.47
2023-04-08T10:25:43.276Z,48.45
2023-04-08T10:28:27.514Z,36.53
2023-04-08T10:30:58.708Z,31.42
2023-04-08T10:33:36.058Z,31.55
2023-04-08T10:36:12.299Z,38.38
2023-04-08T10:38:42.273Z,38.42
2023-04-08T10:41:12.018Z,50.72
2023-04-08T10:43:40.717Z,31.38
2023-04-08T10:46:13.305Z,31.20
2023-04-08T10:48:41.816Z,36.70
2023-04-08T10:51:10.752Z,41.28
2023-04-08T10:53:40.402Z,38.63
2023-04-08T10:56:11.078Z,34.53
2023-04-08T10:59:01.333Z,26.38
2023-04-08T11:01:40.513Z,25.50
2023-04-08T11:04:13.520Z,32.53
2023-04-08T11:06:44.588Z,27.52
2023-04-08T11:09:13.187Z,24.38
2023-04-08T11:11:43.889Z,27.17
2023-04-08T11:14:12.472Z,24.60
2023-04-08T11:16:42.968Z,25.65
2023-04-08T11:19:11.645Z,24.88
2023-04-08T11:21:40.646Z,23.95
2023-04-08T11:24:12.250Z,26.25
2023-04-08T11:26:41.547Z,25.75
2023-04-08T11:29:14.343Z,23.42
2023-04-08T11:31:45.102Z,17.48
2023-04-08T11:34:24.873Z,16.52
2023-04-08T11:36:53.988Z,18.85
2023-04-08T11:39:24.498Z,21.75
2023-04-08T11:41:53.253Z,22.30
2023-04-08T11:44:21.782Z,21.40
2023-04-08T11:46:58.716Z,25.88
2023-04-08T11:49:26.970Z,24.08
2023-04-08T11:51:57.782Z,20.80
2023-04-08T11:54:29.662Z,24.17
2023-04-08T11:56:59.052Z,27.55
2023-04-08T11:59:29.580Z,23.38
2023-04-08T12:02:00.144Z,25.02
2023-04-08T12:04:30.860Z,22.80
2023-04-08T12:06:59.530Z,22.13
2023-04-08T12:09:28.419Z,21.90
2023-04-08T12:11:57.581Z,19.60
2023-04-08T12:14:28.261Z,21.98
2023-04-08T12:16:56.811Z,20.40
2023-04-08T12:19:27.076Z,22.60
2023-04-08T12:21:55.785Z,21.35
2023-04-08T12:24:24.725Z,21.20
2023-04-08T12:26:53.061Z,19.75
2023-04-08T12:29:21.850Z,24.65
2023-04-08T12:31:50.634Z,21.50
2023-04-08T12:34:20.317Z,26.63
2023-04-08T12:36:50.559Z,24.67
2023-04-08T12:39:19.062Z,26.00
2023-04-08T12:41:47.807Z,23.65
2023-04-08T12:44:16.231Z,28.98
2023-04-08T12:46:44.900Z,25.90
2023-04-08T12:49:13.278Z,25.27
2023-04-08T12:51:42.019Z,23.52
2023-04-08T12:54:12.421Z,26.90
2023-04-08T12:56:40.780Z,30.52
2023-04-08T12:59:09.097Z,29.20
2023-04-08T13:01:40.378Z,30.98
2023-04-08T13:04:08.810Z,32.65
2023-04-08T13:06:38.054Z,30.90
2023-04-08T13:09:06.618Z,32.08
2023-04-08T13:11:36.636Z,29.85
2023-04-08T13:14:05.590Z,30.00
2023-04-08T13:16:33.898Z,27.80
2023-04-08T13:19:02.749Z,26.50
2023-04-08T13:21:31.750Z,25.98
2023-04-08T13:24:00.023Z,25.73
2023-04-08T13:26:28.764Z,27.85
2023-04-08T13:28:58.663Z,25.10
2023-04-08T13:31:27.965Z,26.45
2023-04-08T13:33:58.204Z,24.88
2023-04-08T13:36:29.005Z,28.08
2023-04-08T13:38:57.852Z,27.08
2023-04-08T13:41:28.160Z,25.05
2023-04-08T13:43:58.420Z,31.83
2023-04-08T13:46:26.855Z,28.45
2023-04-08T13:48:56.051Z,30.15
2023-04-08T13:51:28.882Z,29.73
2023-04-08T13:54:00.564Z,29.40
2023-04-08T13:56:29.025Z,26.85
2023-04-08T13:58:58.951Z,29.30
2023-04-08T14:01:27.647Z,24.63
2023-04-08T14:03:56.169Z,27.35
2023-04-08T14:06:24.351Z,23.55
2023-04-08T14:08:52.965Z,22.17
2023-04-08T14:11:22.379Z,23.55
2023-04-08T14:13:51.302Z,21.45
2023-04-08T14:16:21.517Z,21.80
2023-04-08T14:18:50.120Z,20.10
2023-04-08T14:21:19.347Z,23.10
2023-04-08T14:23:48.168Z,23.58
2023-04-08T14:26:16.385Z,22.00
2023-04-08T14:28:44.496Z,21.80
2023-04-08T14:31:13.095Z,23.25
2023-04-08T14:33:43.681Z,23.42
2023-04-08T14:36:12.124Z,24.05
2023-04-08T14:38:41.744Z,31.20
2023-04-08T14:41:10.502Z,24.42
2023-04-08T14:43:38.746Z,25.92
2023-04-08T14:46:07.841Z,25.33
2023-04-08T14:48:36.121Z,24.60
2023-04-08T14:51:06.603Z,24.92
2023-04-08T14:53:36.349Z,26.25
2023-04-08T14:56:05.265Z,25.67
2023-04-08T14:58:33.679Z,21.52
2023-04-08T15:01:01.961Z,21.67
2023-04-08T15:03:30.434Z,25.52
2023-04-08T15:05:59.679Z,21.58
2023-04-08T15:08:29.494Z,23.08
2023-04-08T15:10:57.747Z,22.15
2023-04-08T15:13:26.143Z,23.20
2023-04-08T15:15:54.329Z,23.98
2023-04-08T15:18:22.449Z,23.05
2023-04-08T15:20:50.560Z,25.30
2023-04-08T15:23:18.787Z,24.27
2023-04-08T15:25:48.710Z,25.38
2023-04-08T15:28:17.016Z,25.80
2023-04-08T15:30:45.170Z,24.63
2023-04-08T15:33:13.600Z,29.42
2023-04-08T15:35:42.156Z,25.75
2023-04-08T15:38:10.425Z,26.38
2023-04-08T15:40:38.958Z,31.40
2023-04-08T15:43:10.175Z,29.05
2023-04-08T15:45:44.169Z,32.92
2023-04-08T15:48:13.239Z,30.95
2023-04-08T15:50:41.824Z,31.42
2023-04-08T15:53:10.478Z,30.80
2023-04-08T15:55:39.704Z,34.65
2023-04-08T15:58:09.479Z,34.25
2023-04-08T16:00:37.931Z,37.65
2023-04-08T16:03:08.864Z,29.80
2023-04-08T16:05:39.719Z,31.80
2023-04-08T16:08:07.978Z,34.25
2023-04-08T16:10:36.525Z,37.05
2023-04-08T16:13:05.024Z,40.47
2023-04-08T16:15:35.181Z,35.60
2023-04-08T16:18:04.632Z,39.47
2023-04-08T16:20:33.430Z,36.45
2023-04-08T16:23:02.028Z,35.40
2023-04-08T16:25:30.161Z,38.08
2023-04-08T16:27:58.937Z,34.13
2023-04-08T16:30:27.688Z,39.42
2023-04-08T16:32:57.727Z,40.85
2023-04-08T16:35:26.028Z,42.55
2023-04-08T16:37:54.705Z,38.80
2023-04-08T16:40:23.251Z,41.45
2023-04-08T16:42:52.390Z,35.67
2023-04-08T16:45:21.607Z,35.70
2023-04-08T16:47:49.995Z,37.95
2023-04-08T16:50:19.668Z,38.92
2023-04-08T16:52:50.887Z,42.05
2023-04-08T16:55:19.714Z,39.35
2023-04-08T16:57:48.253Z,42.10
2023-04-08T17:00:18.715Z,36.75
2023-04-08T17:02:48.943Z,37.47
2023-04-08T17:08:16.435Z,36.30
2023-04-08T17:10:45.319Z,37.45
2023-04-08T17:13:14.921Z,40.03
2023-04-08T17:15:43.810Z,37.20
2023-04-08T17:18:12.710Z,39.70
2023-04-08T17:20:40.921Z,38.90
2023-04-08T17:23:09.739Z,44.65
2023-04-08T17:25:41.733Z,45.13
2023-04-08T17:28:09.920Z,49.35
2023-04-08T17:30:39.700Z,49.17
2023-04-08T17:33:08.277Z,43.63
2023-04-08T17:35:53.408Z,47.70
2023-04-08T17:38:21.916Z,54.20
2023-04-08T17:40:51.917Z,69.35
2023-04-08T17:43:20.234Z,67.05
2023-04-08T17:45:50.126Z,58.78
2023-04-08T17:48:18.713Z,56.88
2023-04-08T17:50:47.146Z,54.90
2023-04-08T17:53:15.412Z,54.72
2023-04-08T17:55:43.835Z,44.60
2023-04-08T17:58:13.294Z,42.15
2023-04-08T18:00:41.767Z,44.72
2023-04-08T18:03:10.915Z,36.85
2023-04-08T18:05:39.177Z,36.40
2023-04-08T18:08:07.568Z,34.80
2023-04-08T18:10:37.438Z,35.17
2023-04-08T18:13:11.375Z,31.23
2023-04-08T18:15:44.720Z,40.58
2023-04-08T18:18:15.025Z,31.08
2023-04-08T18:20:46.298Z,34.60
2023-04-08T18:23:14.542Z,32.50
2023-04-08T18:25:44.602Z,33.95
2023-04-08T18:28:12.804Z,30.95
2023-04-08T18:30:42.597Z,29.50
2023-04-08T18:33:12.407Z,32.22
2023-04-08T18:35:40.637Z,33.65
2023-04-08T18:38:12.182Z,31.83
2023-04-08T18:40:40.766Z,31.58
2023-04-08T18:43:09.616Z,36.10
2023-04-08T18:45:37.910Z,30.58
2023-04-08T18:48:07.349Z,30.65
2023-04-08T18:50:37.178Z,32.90
2023-04-08T18:53:05.773Z,35.47
2023-04-08T18:55:35.931Z,33.13
2023-04-08T18:58:04.721Z,35.78
2023-04-08T19:00:33.114Z,33.35
2023-04-08T19:03:03.281Z,33.22
2023-04-08T19:05:33.013Z,33.75
2023-04-08T19:08:02.646Z,36.78
2023-04-08T19:10:31.633Z,33.28
2023-04-08T19:13:01.057Z,36.83
2023-04-08T19:15:29.805Z,30.48
2023-04-08T19:17:59.137Z,34.05
2023-04-08T19:20:28.569Z,35.33
2023-04-08T19:22:59.706Z,38.40
2023-04-08T19:25:29.652Z,35.33
2023-04-08T19:27:57.883Z,35.90
2023-04-08T19:30:26.396Z,36.92
2023-04-08T19:32:55.082Z,36.28
2023-04-08T19:35:23.556Z,32.13
2023-04-08T19:37:51.918Z,40.25
2023-04-08T19:40:20.675Z,35.58
2023-04-08T19:42:50.307Z,31.30
2023-04-08T19:45:19.217Z,35.00
2023-04-08T19:47:47.657Z,36.35
2023-04-08T19:50:16.205Z,32.17
2023-04-08T19:52:44.459Z,35.38
2023-04-08T19:55:12.756Z,37.35
2023-04-08T19:57:41.173Z,33.33
2023-04-08T20:00:14.226Z,30.88
2023-04-08T20:02:42.928Z,31.35
2023-04-08T20:05:14.832Z,30.67
2023-04-08T20:07:43.344Z,33.88
2023-04-08T20:10:12.799Z,28.00
2023-04-08T20:12:41.716Z,31.77
2023-04-08T20:15:23.796Z,34.03
2023-04-08T20:17:55.029Z,34.60
2023-04-08T20:20:24.068Z,41.72
2023-04-08T20:22:52.619Z,38.00
2023-04-08T20:25:21.278Z,38.60
2023-04-08T20:27:49.572Z,42.05
2023-04-08T20:30:19.262Z,40.97
2023-04-08T20:32:47.734Z,36.63
2023-04-08T20:35:16.113Z,46.33
2023-04-08T20:37:44.373Z,43.88
2023-04-08T20:40:13.194Z,46.17
2023-04-08T20:42:41.768Z,42.05
2023-04-08T20:45:11.527Z,44.85
2023-04-08T20:47:41.474Z,50.00
2023-04-08T20:50:10.836Z,51.00
2023-04-08T20:52:39.699Z,49.78
2023-04-08T20:55:09.178Z,47.60
2023-04-08T20:57:37.611Z,46.72
2023-04-08T21:00:07.793Z,45.08
2023-04-08T21:02:36.430Z,49.88
2023-04-08T21:05:06.809Z,57.47
2023-04-08T21:07:38.471Z,47.88
2023-04-08T21:10:08.060Z,54.28
2023-04-08T21:12:36.220Z,57.22
2023-04-08T21:15:04.765Z,57.55
2023-04-08T21:17:33.033Z,57.50
2023-04-08T21:20:06.595Z,55.45
2023-04-08T21:22:35.228Z,55.38
2023-04-08T21:25:03.765Z,55.15
2023-04-08T21:27:32.503Z,52.40
2023-04-08T21:30:00.910Z,58.42
2023-04-08T21:32:30.349Z,58.72
2023-04-08T21:34:59.628Z,58.25
2023-04-08T21:37:29.993Z,49.30
2023-04-08T21:39:58.220Z,53.80
2023-04-08T21:42:27.528Z,48.03
2023-04-08T21:44:55.826Z,55.92
2023-04-08T21:47:24.138Z,45.78
2023-04-08T21:49:52.522Z,44.40
2023-04-08T21:52:21.239Z,45.47
2023-04-08T21:54:51.723Z,39.38
2023-04-08T21:57:20.132Z,47.45
2023-04-08T21:59:49.166Z,47.42
2023-04-08T22:02:17.486Z,46.65
2023-04-08T22:04:46.101Z,43.80
2023-04-08T22:07:14.472Z,43.50
2023-04-08T22:09:42.826Z,42.58
2023-04-08T22:12:12.681Z,43.08
2023-04-08T22:14:41.042Z,41.20
2023-04-08T22:17:09.458Z,40.65
2023-04-08T22:19:37.938Z,43.72
2023-04-08T22:22:06.512Z,40.25
2023-04-08T22:24:35.758Z,40.67
2023-04-08T22:27:04.061Z,42.03
2023-04-08T22:29:34.000Z,43.22
2023-04-08T22:32:02.381Z,49.08
2023-04-08T22:34:31.090Z,47.78
2023-04-08T22:36:59.456Z,54.92
2023-04-08T22:39:28.028Z,45.47
2023-04-08T22:41:56.668Z,45.80
2023-04-08T22:44:25.441Z,43.13
2023-04-08T22:46:55.246Z,47.75
2023-04-08T22:49:23.669Z,44.78
2023-04-08T22:51:52.121Z,46.03
2023-04-08T22:54:20.559Z,48.10
2023-04-08T22:56:48.986Z,50.92
2023-04-08T22:59:17.415Z,50.90
2023-04-08T23:01:46.022Z,46.28
2023-04-08T23:04:16.241Z,50.10
2023-04-08T23:06:44.550Z,52.10
2023-04-08T23:09:12.842Z,53.92
2023-04-08T23:11:41.418Z,52.08
2023-04-08T23:14:11.015Z,49.13
2023-04-08T23:16:39.252Z,46.90
2023-04-08T23:19:07.525Z,49.38
2023-04-08T23:21:37.129Z,44.28
2023-04-08T23:24:06.627Z,47.00
2023-04-08T23:26:35.229Z,47.65
2023-04-08T23:29:03.552Z,51.15
2023-04-08T23:31:32.440Z,54.75
2023-04-08T23:34:00.698Z,53.83
2023-04-08T23:36:28.928Z,52.30
2023-04-08T23:38:58.576Z,62.70
2023-04-08T23:41:26.837Z,60.95
2023-04-08T23:43:55.240Z,57.95
2023-04-08T23:46:24.653Z,65.78
2023-04-08T23:48:53.418Z,56.30
2023-04-08T23:51:21.739Z,57.20
2023-04-08T23:53:51.809Z,60.97
2023-04-08T23:56:21.518Z,54.92
2023-04-08T23:58:50.113Z,52.50
